createdAt,value
2018-11-23T00:00:32.497Z,100980.75
2018-11-23T00:01:35.901Z,100985.75
2018-11-23T00:02:39.321Z,100981.69
2018-11-23T00:03:42.729Z,100981.84
2018-11-23T00:04:46.180Z,100983.69
2018-11-23T00:05:49.605Z,100975.22
2018-11-23T00:06:52.992Z,100975.66
2018-11-23T00:07:57.136Z,100978.42
2018-11-23T00:09:00.525Z,100984.81
2018-11-23T00:10:04.080Z,100982.56
2018-11-23T00:11:07.470Z,100973.30
2018-11-23T00:12:10.842Z,100981.42
2018-11-23T00:13:14.301Z,100985.09
2018-11-23T00:14:17.781Z,100987.11
2018-11-23T00:15:22.284Z,100989.45
2018-11-23T00:16:25.713Z,100985.41
2018-11-23T00:17:29.112Z,100993.22
2018-11-23T00:18:32.547Z,100996.07
2018-11-23T00:19:35.991Z,100993.07
2018-11-23T00:20:39.389Z,101000.13
2018-11-23T00:21:42.758Z,100996.33
2018-11-23T00:22:46.263Z,100987.56
2018-11-23T00:23:49.674Z,100996.80
2018-11-23T00:24:53.120Z,100988.28
2018-11-23T00:25:56.535Z,100982.17
2018-11-23T00:26:59.927Z,100984.27
2018-11-23T00:28:03.453Z,100985.72
2018-11-23T00:29:06.873Z,100984.34
2018-11-23T00:30:12.461Z,100980.94
2018-11-23T00:31:15.976Z,100993.66
2018-11-23T00:32:19.350Z,100998.52
2018-11-23T00:33:22.721Z,100995.03
2018-11-23T00:34:26.126Z,100994.94
2018-11-23T00:35:30.707Z,100989.84
2018-11-23T00:36:34.118Z,100987.34
2018-11-23T00:37:37.515Z,101000.58
2018-11-23T00:38:40.916Z,100997.64
2018-11-23T00:39:45.106Z,101006.59
2018-11-23T00:40:48.513Z,100997.36
2018-11-23T00:41:52.117Z,101000.22
2018-11-23T00:42:55.823Z,100999.50
2018-11-23T00:43:59.262Z,100999.09
2018-11-23T00:45:02.800Z,100994.66
2018-11-23T00:46:07.150Z,101003.74
2018-11-23T00:47:10.551Z,101000.74
2018-11-23T00:48:13.970Z,101005.70
2018-11-23T00:49:17.398Z,100999.70
2018-11-23T00:50:22.022Z,101009.32
2018-11-23T00:51:25.457Z,101004.93
2018-11-23T00:52:28.875Z,101003.93
2018-11-23T00:53:32.302Z,101009.13
2018-11-23T00:54:35.721Z,101007.82
2018-11-23T00:55:39.143Z,101001.79
2018-11-23T00:56:42.568Z,101001.96
2018-11-23T00:57:45.997Z,101001.16
2018-11-23T00:58:49.424Z,101004.66
2018-11-23T00:59:52.870Z,101007.19
2018-11-23T01:00:56.256Z,101006.68
2018-11-23T01:02:03.776Z,101004.22
2018-11-23T01:03:07.181Z,101007.08
2018-11-23T01:04:10.624Z,100999.08
2018-11-23T01:05:15.679Z,101007.36
2018-11-23T01:06:19.118Z,101003.07
2018-11-23T01:07:22.586Z,100999.80
2018-11-23T01:08:25.985Z,101003.70
2018-11-23T01:09:29.375Z,101007.13
2018-11-23T01:10:32.807Z,100999.03
2018-11-23T01:11:36.261Z,101001.80
2018-11-23T01:12:39.906Z,101003.03
2018-11-23T01:13:43.429Z,101000.90
2018-11-23T01:14:46.807Z,101002.84
2018-11-23T01:15:50.242Z,101003.37
2018-11-23T01:16:53.653Z,101002.88
2018-11-23T01:17:57.083Z,101004.98
2018-11-23T01:19:00.500Z,100999.59
2018-11-23T01:20:04.187Z,101006.37
2018-11-23T01:21:07.664Z,101001.66
2018-11-23T01:22:11.179Z,101000.19
2018-11-23T01:23:14.574Z,100992.27
2018-11-23T01:24:18.258Z,101000.80
2018-11-23T01:25:22.642Z,101000.90
2018-11-23T01:26:26.209Z,100999.04
2018-11-23T01:27:29.610Z,100999.20
2018-11-23T01:28:33.041Z,100999.84
2018-11-23T01:29:36.480Z,101003.59
2018-11-23T01:30:39.992Z,101007.50
2018-11-23T01:31:43.753Z,101005.98
2018-11-23T01:32:47.301Z,101001.45
2018-11-23T01:33:50.775Z,101002.09
2018-11-23T01:34:55.503Z,101003.89
2018-11-23T01:35:58.943Z,101005.94
2018-11-23T01:37:02.610Z,101007.31
2018-11-23T01:38:06.111Z,101004.80
2018-11-23T01:39:10.679Z,101004.84
2018-11-23T01:40:30.172Z,101002.17
2018-11-23T01:41:33.609Z,101004.08
2018-11-23T01:42:37.084Z,101004.55
2018-11-23T01:43:40.459Z,100997.88
2018-11-23T01:44:51.316Z,100992.87
2018-11-23T01:45:54.746Z,101001.47
2018-11-23T01:46:58.157Z,101003.66
2018-11-23T01:48:01.692Z,101000.09
2018-11-23T01:49:05.668Z,101002.84
2018-11-23T01:50:12.308Z,101000.09
2018-11-23T01:51:15.898Z,100997.75
2018-11-23T01:52:19.335Z,101000.75
2018-11-23T01:53:22.755Z,100998.39
2018-11-23T01:54:26.174Z,100995.45
2018-11-23T01:55:29.577Z,100990.03
2018-11-23T01:56:33.308Z,100991.83
2018-11-23T01:57:37.246Z,100989.50
2018-11-23T01:58:40.827Z,100992.59
2018-11-23T01:59:44.296Z,100995.42
2018-11-23T02:00:47.739Z,100995.03
2018-11-23T02:01:51.170Z,100991.89
2018-11-23T02:02:55.238Z,100993.03
2018-11-23T02:03:58.678Z,100985.70
2018-11-23T02:05:02.101Z,100991.61
2018-11-23T02:06:05.646Z,100983.23
2018-11-23T02:07:09.071Z,100996.88
2018-11-23T02:08:12.908Z,100992.55
2018-11-23T02:09:16.450Z,100991.25
2018-11-23T02:10:20.629Z,100998.23
2018-11-23T02:11:24.430Z,100999.61
2018-11-23T02:12:27.868Z,100998.04
2018-11-23T02:13:31.346Z,100993.66
2018-11-23T02:14:34.786Z,100997.56
2018-11-23T02:15:38.189Z,100994.09
2018-11-23T02:16:41.607Z,100993.84
2018-11-23T02:17:45.195Z,100995.05
2018-11-23T02:18:48.609Z,100986.13
2018-11-23T02:19:53.748Z,100992.22
2018-11-23T02:20:57.305Z,100989.22
2018-11-23T02:22:00.726Z,100988.84
2018-11-23T02:23:04.114Z,100991.93
2018-11-23T02:24:07.571Z,100987.08
2018-11-23T02:25:11.062Z,100986.89
2018-11-23T02:26:15.142Z,100987.89
2018-11-23T02:27:18.567Z,100979.70
2018-11-23T02:28:22.041Z,100982.80
2018-11-23T02:29:25.552Z,100983.37
2018-11-23T02:30:29.060Z,100985.84
2018-11-23T02:31:33.027Z,100988.69
2018-11-23T02:32:36.806Z,100985.31
2018-11-23T02:33:41.308Z,100984.08
2018-11-23T02:34:44.762Z,100987.84
2018-11-23T02:35:48.427Z,100992.47
2018-11-23T02:36:51.909Z,100990.18
2018-11-23T02:37:55.400Z,100987.22
2018-11-23T02:38:58.872Z,100986.89
2018-11-23T02:40:02.299Z,100988.61
2018-11-23T02:41:05.846Z,100985.13
2018-11-23T02:42:09.524Z,100989.03
2018-11-23T02:43:12.947Z,100989.70
2018-11-23T02:44:16.793Z,100987.28
2018-11-23T02:45:21.418Z,100988.48
2018-11-23T02:46:24.848Z,100989.02
2018-11-23T02:47:28.448Z,100986.78
2018-11-23T02:48:32.361Z,100983.55
2018-11-23T02:49:36.293Z,100982.84
2018-11-23T02:50:39.712Z,100987.08
2018-11-23T02:51:43.220Z,100986.42
2018-11-23T02:52:47.170Z,100988.13
2018-11-23T02:53:50.623Z,100981.80
2018-11-23T02:54:54.038Z,100979.94
2018-11-23T02:55:57.592Z,100984.38
2018-11-23T02:57:01.068Z,100991.52
2018-11-23T02:58:05.100Z,100991.78
2018-11-23T02:59:08.783Z,100991.36
2018-11-23T03:00:14.896Z,100992.79
2018-11-23T03:01:18.413Z,100993.50
2018-11-23T03:02:21.843Z,100991.72
2018-11-23T03:03:25.321Z,100992.23
2018-11-23T03:04:28.765Z,100994.33
2018-11-23T03:05:32.184Z,100992.61
2018-11-23T03:06:35.854Z,100990.75
2018-11-23T03:07:39.361Z,100991.66
2018-11-23T03:08:42.813Z,100992.23
2018-11-23T03:09:46.297Z,100982.45
2018-11-23T03:10:49.735Z,100989.36
2018-11-23T03:11:53.161Z,100989.13
2018-11-23T03:12:56.586Z,100984.50
2018-11-23T03:14:00.110Z,100981.69
2018-11-23T03:15:03.746Z,100982.59
2018-11-23T03:16:07.183Z,100979.75
2018-11-23T03:17:10.628Z,100979.28
2018-11-23T03:18:14.118Z,100979.37
2018-11-23T03:19:17.631Z,100978.33
2018-11-23T03:20:22.164Z,100973.61
2018-11-23T03:21:25.715Z,100981.33
2018-11-23T03:22:29.191Z,100971.70
2018-11-23T03:23:32.739Z,100978.45
2018-11-23T03:24:36.186Z,100977.45
2018-11-23T03:25:39.663Z,100981.27
2018-11-23T03:26:43.093Z,100978.55
2018-11-23T03:27:46.522Z,100974.03
2018-11-23T03:28:50.037Z,100978.89
2018-11-23T03:29:53.438Z,100975.56
2018-11-23T03:30:56.889Z,100975.56
2018-11-23T03:32:00.351Z,100967.51
2018-11-23T03:33:03.798Z,100963.80
2018-11-23T03:34:07.434Z,100977.52
2018-11-23T03:35:10.923Z,100974.75
2018-11-23T03:36:14.890Z,100973.13
2018-11-23T03:37:18.647Z,100970.46
2018-11-23T03:38:22.063Z,100964.93
2018-11-23T03:39:25.559Z,100962.98
2018-11-23T03:40:29.021Z,100964.45
2018-11-23T03:41:32.431Z,100962.70
2018-11-23T03:42:35.843Z,100960.50
2018-11-23T03:43:39.304Z,100960.33
2018-11-23T03:44:43.032Z,100959.52
2018-11-23T03:45:46.606Z,100961.47
2018-11-23T03:46:50.048Z,100962.13
2018-11-23T03:47:53.458Z,100963.64
2018-11-23T03:48:57.076Z,100964.36
2018-11-23T03:50:00.822Z,100963.63
2018-11-23T03:51:04.254Z,100967.61
2018-11-23T03:52:07.914Z,100968.17
2018-11-23T03:53:11.361Z,100959.08
2018-11-23T03:54:15.025Z,100965.36
2018-11-23T03:55:18.588Z,100960.03
2018-11-23T03:56:22.007Z,100963.41
2018-11-23T03:57:25.472Z,100965.13
2018-11-23T03:58:28.868Z,100965.55
2018-11-23T03:59:32.382Z,100973.94
2018-11-23T04:00:35.796Z,100968.98
2018-11-23T04:01:39.217Z,100968.52
2018-11-23T04:02:42.686Z,100958.27
2018-11-23T04:03:46.482Z,100969.64
2018-11-23T04:04:50.035Z,100965.13
2018-11-23T04:05:53.510Z,100967.74
2018-11-23T04:06:56.910Z,100967.00
2018-11-23T04:08:00.584Z,100960.85
2018-11-23T04:09:04.705Z,100965.09
2018-11-23T04:10:09.797Z,100970.20
2018-11-23T04:11:13.255Z,100964.86
2018-11-23T04:12:16.760Z,100961.86
2018-11-23T04:13:20.206Z,100961.81
2018-11-23T04:14:23.627Z,100959.68
2018-11-23T04:15:27.084Z,100958.00
2018-11-23T04:16:30.561Z,100962.95
2018-11-23T04:17:34.018Z,100957.29
2018-11-23T04:18:37.582Z,100955.09
2018-11-23T04:19:41.009Z,100950.95
2018-11-23T04:20:50.773Z,100953.33
2018-11-23T04:21:54.363Z,100961.22
2018-11-23T04:22:57.880Z,100960.70
2018-11-23T04:24:01.331Z,100958.09
2018-11-23T04:25:04.903Z,100960.37
2018-11-23T04:26:08.561Z,100954.70
2018-11-23T04:27:12.142Z,100959.46
2018-11-23T04:28:15.698Z,100962.64
2018-11-23T04:29:19.236Z,100958.67
2018-11-23T04:30:22.675Z,100959.81
2018-11-23T04:31:26.195Z,100960.77
2018-11-23T04:32:29.711Z,100967.74
2018-11-23T04:33:33.183Z,100965.39
2018-11-23T04:34:37.008Z,100969.86
2018-11-23T04:35:40.464Z,100973.03
2018-11-23T04:36:44.610Z,100970.08
2018-11-23T04:37:48.996Z,100966.03
2018-11-23T04:38:52.670Z,100971.30
2018-11-23T04:39:56.081Z,100968.06
2018-11-23T04:40:59.738Z,100975.59
2018-11-23T04:42:03.293Z,100969.12
2018-11-23T04:43:06.860Z,100977.68
2018-11-23T04:44:10.284Z,100977.44
2018-11-23T04:45:14.337Z,100969.25
2018-11-23T04:46:18.058Z,100976.22
2018-11-23T04:47:21.619Z,100974.36
2018-11-23T04:48:25.253Z,100969.73
2018-11-23T04:49:28.685Z,100971.20
2018-11-23T04:50:32.348Z,100965.58
2018-11-23T04:51:35.801Z,100975.70
2018-11-23T04:52:39.317Z,100967.27
2018-11-23T04:53:42.923Z,100977.00
2018-11-23T04:54:46.361Z,100970.00
2018-11-23T04:55:49.841Z,100967.23
2018-11-23T04:56:53.298Z,100965.34
2018-11-23T04:57:56.790Z,100966.23
2018-11-23T04:59:00.181Z,100967.12
2018-11-23T05:00:03.763Z,100963.88
2018-11-23T05:01:07.573Z,100959.02
2018-11-23T05:02:11.108Z,100957.39
2018-11-23T05:03:14.830Z,100954.16
2018-11-23T05:04:18.270Z,100952.25
2018-11-23T05:05:21.786Z,100949.02
2018-11-23T05:06:25.282Z,100944.96
2018-11-23T05:07:28.721Z,100945.28
2018-11-23T05:08:32.535Z,100954.67
2018-11-23T05:09:35.983Z,100952.81
2018-11-23T05:10:39.446Z,100948.44
2018-11-23T05:11:42.886Z,100943.81
2018-11-23T05:12:46.807Z,100951.55
2018-11-23T05:13:50.351Z,100947.18
2018-11-23T05:14:53.749Z,100951.63
2018-11-23T05:15:57.251Z,100951.70
2018-11-23T05:17:00.711Z,100952.84
2018-11-23T05:18:04.570Z,100956.72
2018-11-23T05:19:07.983Z,100966.92
2018-11-23T05:20:12.101Z,100968.38
2018-11-23T05:21:15.554Z,100970.89
2018-11-23T05:22:19.004Z,100963.52
2018-11-23T05:23:22.419Z,100964.64
2018-11-23T05:24:25.856Z,100962.18
2018-11-23T05:25:29.304Z,100963.31
2018-11-23T05:26:33.357Z,100959.50
2018-11-23T05:27:36.927Z,100958.45
2018-11-23T05:28:40.360Z,100957.39
2018-11-23T05:29:43.809Z,100958.27
2018-11-23T05:30:47.277Z,100949.77
2018-11-23T05:31:50.703Z,100949.45
2018-11-23T05:32:54.558Z,100953.27
2018-11-23T05:33:57.973Z,100954.88
2018-11-23T05:35:01.401Z,100953.43
2018-11-23T05:36:04.869Z,100956.38
2018-11-23T05:37:08.397Z,100955.34
2018-11-23T05:38:11.859Z,100951.02
2018-11-23T05:39:15.499Z,100950.95
2018-11-23T05:40:20.415Z,100952.45
2018-11-23T05:41:23.907Z,100951.73
2018-11-23T05:42:27.362Z,100951.81
2018-11-23T05:43:30.810Z,100953.91
2018-11-23T05:44:34.260Z,100954.06
2018-11-23T05:45:37.818Z,100951.95
2018-11-23T05:46:41.276Z,100943.88
2018-11-23T05:47:45.088Z,100953.20
2018-11-23T05:48:48.744Z,100946.55
2018-11-23T05:49:52.171Z,100948.42
2018-11-23T05:50:55.783Z,100943.06
2018-11-23T05:51:59.234Z,100942.83
2018-11-23T05:53:02.703Z,100944.45
2018-11-23T05:54:06.527Z,100947.44
2018-11-23T05:55:10.584Z,100940.31
2018-11-23T05:56:14.093Z,100947.28
2018-11-23T05:57:17.877Z,100936.59
2018-11-23T05:58:21.297Z,100942.98
2018-11-23T05:59:24.683Z,100935.86
2018-11-23T06:00:29.755Z,100935.70
2018-11-23T06:01:33.299Z,100935.75
2018-11-23T06:02:36.932Z,100932.02
2018-11-23T06:03:40.443Z,100933.80
2018-11-23T06:04:43.885Z,100927.29
2018-11-23T06:05:47.537Z,100929.28
2018-11-23T06:06:51.018Z,100933.17
2018-11-23T06:07:54.576Z,100929.94
2018-11-23T06:08:58.333Z,100928.95
2018-11-23T06:10:01.807Z,100936.58
2018-11-23T06:11:06.319Z,100937.14
2018-11-23T06:12:09.787Z,100929.45
2018-11-23T06:13:13.234Z,100932.28
2018-11-23T06:14:17.138Z,100932.03
2018-11-23T06:15:22.667Z,100932.84
2018-11-23T06:16:26.094Z,100938.84
2018-11-23T06:17:29.762Z,100933.98
2018-11-23T06:18:33.448Z,100934.12
2018-11-23T06:19:37.014Z,100936.39
2018-11-23T06:20:40.673Z,100937.37
2018-11-23T06:21:44.099Z,100941.61
2018-11-23T06:22:48.564Z,100937.31
2018-11-23T06:23:52.112Z,100936.42
2018-11-23T06:24:56.120Z,100941.14
2018-11-23T06:26:07.186Z,100935.06
2018-11-23T06:27:10.667Z,100935.63
2018-11-23T06:28:14.538Z,100934.25
2018-11-23T06:29:18.540Z,100931.25
2018-11-23T06:30:24.585Z,100933.44
2018-11-23T06:31:29.533Z,100930.53
2018-11-23T06:32:44.560Z,100926.64
2018-11-23T06:33:49.631Z,100935.53
2018-11-23T06:34:53.530Z,100936.17
2018-11-23T06:35:56.960Z,100932.69
2018-11-23T06:37:00.415Z,100931.97
2018-11-23T06:38:03.856Z,100922.41
2018-11-23T06:39:09.305Z,100929.10
2018-11-23T06:40:12.793Z,100931.45
2018-11-23T06:41:16.322Z,100933.72
2018-11-23T06:42:19.793Z,100929.72
2018-11-23T06:43:23.432Z,100936.94
2018-11-23T06:44:30.054Z,100938.04
2018-11-23T06:45:37.017Z,100932.04
2018-11-23T06:46:41.869Z,100941.20
2018-11-23T06:47:45.319Z,100932.44
2018-11-23T06:48:48.750Z,100933.58
2018-11-23T06:49:52.143Z,100938.27
2018-11-23T06:50:55.912Z,100942.73
2018-11-23T06:51:59.310Z,100944.43
2018-11-23T06:53:02.747Z,100940.67
2018-11-23T06:54:06.327Z,100949.82
2018-11-23T06:55:10.666Z,100945.20
2018-11-23T06:56:14.383Z,100947.23
2018-11-23T06:57:18.207Z,100943.41
2018-11-23T06:58:21.779Z,100944.23
2018-11-23T06:59:25.237Z,100944.39
2018-11-23T07:00:28.693Z,100945.24
2018-11-23T07:01:32.409Z,100947.59
2018-11-23T07:02:35.828Z,100950.39
2018-11-23T07:03:39.277Z,100951.71
2018-11-23T07:04:42.869Z,100957.22
2018-11-23T07:05:46.480Z,100956.28
2018-11-23T07:06:49.986Z,100954.26
2018-11-23T07:07:53.420Z,100954.50
2018-11-23T07:08:56.829Z,100963.50
2018-11-23T07:10:00.248Z,100957.58
2018-11-23T07:11:04.203Z,100964.41
2018-11-23T07:12:07.659Z,100957.58
2018-11-23T07:13:11.163Z,100960.33
2018-11-23T07:14:15.581Z,100960.84
2018-11-23T07:15:20.521Z,100958.14
2018-11-23T07:16:23.944Z,100965.60
2018-11-23T07:17:27.783Z,100961.79
2018-11-23T07:18:31.357Z,100958.80
2018-11-23T07:19:34.933Z,100962.20
2018-11-23T07:20:38.535Z,100962.77
2018-11-23T07:21:42.089Z,100961.80
2018-11-23T07:22:45.621Z,100958.28
2018-11-23T07:23:49.241Z,100962.73
2018-11-23T07:24:52.641Z,100959.82
2018-11-23T07:25:56.137Z,100961.27
2018-11-23T07:26:59.533Z,100956.58
2018-11-23T07:28:03.064Z,100956.73
2018-11-23T07:29:06.579Z,100955.52
2018-11-23T07:30:17.521Z,100955.95
2018-11-23T07:31:20.981Z,100956.04
2018-11-23T07:32:24.397Z,100959.14
2018-11-23T07:33:27.822Z,100962.55
2018-11-23T07:34:31.402Z,100961.43
2018-11-23T07:35:34.867Z,100960.94
2018-11-23T07:36:38.369Z,100962.31
2018-11-23T07:37:41.811Z,100956.55
2018-11-23T07:38:45.229Z,100958.42
2018-11-23T07:40:00.028Z,100954.20
2018-11-23T07:41:14.947Z,100952.33
2018-11-23T07:42:21.428Z,100946.09
2018-11-23T07:43:24.905Z,100946.42
2018-11-23T07:44:28.561Z,100943.66
2018-11-23T07:45:32.445Z,100940.42
2018-11-23T07:46:35.947Z,100944.97
2018-11-23T07:47:39.438Z,100944.45
2018-11-23T07:48:42.859Z,100945.02
2018-11-23T07:49:46.506Z,100946.48
2018-11-23T07:50:49.984Z,100950.14
2018-11-23T07:51:53.410Z,100948.03
2018-11-23T07:52:56.858Z,100949.02
2018-11-23T07:54:00.282Z,100944.93
2018-11-23T07:55:04.005Z,100940.07
2018-11-23T07:56:08.632Z,100940.72
2018-11-23T07:57:12.627Z,100940.72
2018-11-23T07:58:16.272Z,100941.61
2018-11-23T07:59:19.681Z,100947.45
2018-11-23T08:00:24.213Z,100946.88
2018-11-23T08:01:28.301Z,100950.53
2018-11-23T08:02:31.730Z,100941.21
2018-11-23T08:03:35.213Z,100947.82
2018-11-23T08:04:39.730Z,100947.09
2018-11-23T08:05:43.559Z,100936.88
2018-11-23T08:06:47.108Z,100937.77
2018-11-23T08:07:50.583Z,100938.59
2018-11-23T08:08:54.844Z,100933.16
2018-11-23T08:09:57.505Z,100936.80
2018-11-23T08:11:04.825Z,100933.48
2018-11-23T08:12:09.401Z,100933.56
2018-11-23T08:13:13.632Z,100931.42
2018-11-23T08:14:17.316Z,100933.91
2018-11-23T08:15:22.060Z,100937.55
2018-11-23T08:16:25.498Z,100934.31
2018-11-23T08:17:28.950Z,100937.38
2018-11-23T08:18:32.424Z,100941.27
2018-11-23T08:19:35.867Z,100945.48
2018-11-23T08:20:40.974Z,100941.11
2018-11-23T08:21:44.567Z,100945.64
2018-11-23T08:22:49.466Z,100944.27
2018-11-23T08:23:52.874Z,100943.50
2018-11-23T08:24:56.301Z,100945.20
2018-11-23T08:25:59.656Z,100941.39
2018-11-23T08:27:03.113Z,100942.28
2018-11-23T08:28:06.882Z,100940.66
2018-11-23T08:29:12.104Z,100944.88
2018-11-23T08:30:23.191Z,100948.52
2018-11-23T08:31:26.902Z,100947.75
2018-11-23T08:32:30.374Z,100953.58
2018-11-23T08:33:34.161Z,100954.70
2018-11-23T08:34:37.577Z,100954.46
2018-11-23T08:35:40.994Z,100956.16
2018-11-23T08:36:45.769Z,100950.97
2018-11-23T08:37:49.424Z,100954.30
2018-11-23T08:38:53.229Z,100950.23
2018-11-23T08:39:57.943Z,100949.99
2018-11-23T08:41:02.484Z,100944.53
2018-11-23T08:42:06.730Z,100940.16
2018-11-23T08:43:10.690Z,100946.80
2018-11-23T08:44:15.274Z,100949.30
2018-11-23T08:45:21.901Z,100950.43
2018-11-23T08:46:25.338Z,100952.63
2018-11-23T08:47:29.439Z,100952.37
2018-11-23T08:48:32.881Z,100946.05
2018-11-23T08:49:36.356Z,100946.63
2018-11-23T08:50:39.841Z,100951.31
2018-11-23T08:51:43.283Z,100947.51
2018-11-23T08:52:46.730Z,100943.95
2018-11-23T08:53:50.157Z,100951.39
2018-11-23T08:54:53.607Z,100950.33
2018-11-23T08:55:57.074Z,100952.28
2018-11-23T08:57:00.556Z,100944.59
2018-11-23T08:58:04.037Z,100940.77
2018-11-23T08:59:07.442Z,100942.16
2018-11-23T09:00:31.386Z,100941.63
2018-11-23T09:01:34.815Z,100941.14
2018-11-23T09:02:38.214Z,100936.77
2018-11-23T09:03:41.641Z,100935.46
2018-11-23T09:04:45.105Z,100937.41
2018-11-23T09:05:48.532Z,100935.78
2018-11-23T09:06:51.927Z,100938.29
2018-11-23T09:07:56.291Z,100941.61
2018-11-23T09:08:59.666Z,100935.05
2018-11-23T09:10:03.117Z,100932.30
2018-11-23T09:11:07.221Z,100942.00
2018-11-23T09:12:10.698Z,100942.31
2018-11-23T09:13:14.163Z,100936.53
2018-11-23T09:14:17.570Z,100932.41
2018-11-23T09:15:21.025Z,100931.91
2018-11-23T09:16:24.475Z,100933.85
2018-11-23T09:17:27.898Z,100930.30
2018-11-23T09:18:31.700Z,100926.48
2018-11-23T09:19:34.938Z,100933.11
2018-11-23T09:20:38.347Z,100932.87
2018-11-23T09:21:41.749Z,100936.75
2018-11-23T09:22:45.540Z,100931.56
2018-11-23T09:23:49.035Z,100930.19
2018-11-23T09:24:52.612Z,100927.73
2018-11-23T09:25:55.997Z,100931.05
2018-11-23T09:26:59.422Z,100926.11
2018-11-23T09:28:02.858Z,100923.42
2018-11-23T09:29:06.383Z,100929.98
2018-11-23T09:30:14.517Z,100928.92
2018-11-23T09:31:17.967Z,100931.16
2018-11-23T09:32:21.415Z,100933.62
2018-11-23T09:33:24.860Z,100930.41
2018-11-23T09:34:28.372Z,100924.80
2018-11-23T09:35:31.808Z,100923.32
2018-11-23T09:36:35.267Z,100924.48
2018-11-23T09:37:39.543Z,100926.56
2018-11-23T09:38:43.041Z,100924.19
2018-11-23T09:39:46.603Z,100919.01
2018-11-23T09:40:50.065Z,100921.55
2018-11-23T09:41:53.457Z,100920.30
2018-11-23T09:42:57.718Z,100921.00
2018-11-23T09:44:01.162Z,100924.16
2018-11-23T09:45:05.520Z,100922.04
2018-11-23T09:46:08.953Z,100918.64
2018-11-23T09:47:12.376Z,100921.02
2018-11-23T09:48:15.925Z,100917.23
2018-11-23T09:49:19.335Z,100920.39
2018-11-23T09:50:23.710Z,100919.95
2018-11-23T09:51:27.217Z,100917.36
2018-11-23T09:52:30.693Z,100912.05
2018-11-23T09:53:34.149Z,100915.98
2018-11-23T09:54:37.559Z,100913.82
2018-11-23T09:55:41.788Z,100908.89
2018-11-23T09:56:45.708Z,100909.17
2018-11-23T09:57:49.482Z,100907.27
2018-11-23T09:58:52.913Z,100904.08
2018-11-23T09:59:56.390Z,100903.02
2018-11-23T10:00:59.863Z,100899.40
2018-11-23T10:02:03.300Z,100899.96
2018-11-23T10:03:07.350Z,100898.02
2018-11-23T10:04:10.770Z,100900.77
2018-11-23T10:05:15.007Z,100892.78
2018-11-23T10:06:18.494Z,100901.95
2018-11-23T10:07:21.933Z,100898.09
2018-11-23T10:08:25.400Z,100897.77
2018-11-23T10:09:28.888Z,100901.64
2018-11-23T10:10:32.472Z,100892.66
2018-11-23T10:11:35.925Z,100893.27
2018-11-23T10:12:39.689Z,100896.02
2018-11-23T10:13:43.090Z,100899.09
2018-11-23T10:14:46.531Z,100896.91
2018-11-23T10:15:50.066Z,100901.59
2018-11-23T10:16:53.523Z,100901.09
2018-11-23T10:17:56.984Z,100898.84
2018-11-23T10:19:00.419Z,100897.22
2018-11-23T10:20:04.576Z,100895.04
2018-11-23T10:21:08.023Z,100895.09
2018-11-23T10:22:11.464Z,100900.34
2018-11-23T10:23:14.888Z,100896.16
2018-11-23T10:24:18.294Z,100894.03
2018-11-23T10:25:23.117Z,100894.12
2018-11-23T10:26:26.588Z,100894.42
2018-11-23T10:27:30.029Z,100891.37
2018-11-23T10:28:33.478Z,100894.65
2018-11-23T10:29:36.885Z,100893.22
2018-11-23T10:30:40.309Z,100897.09
2018-11-23T10:31:43.742Z,100887.17
2018-11-23T10:32:48.315Z,100887.42
2018-11-23T10:33:51.870Z,100885.69
2018-11-23T10:34:55.321Z,100886.19
2018-11-23T10:35:58.840Z,100883.66
2018-11-23T10:37:02.231Z,100876.74
2018-11-23T10:38:06.476Z,100880.55
2018-11-23T10:39:09.957Z,100878.30
2018-11-23T10:40:15.835Z,100876.31
2018-11-23T10:41:19.268Z,100878.44
2018-11-23T10:42:22.954Z,100875.66
2018-11-23T10:43:26.429Z,100876.97
2018-11-23T10:44:29.857Z,100878.84
2018-11-23T10:45:34.006Z,100867.55
2018-11-23T10:46:37.458Z,100872.98
2018-11-23T10:47:41.180Z,100870.17
2018-11-23T10:48:44.665Z,100863.80
2018-11-23T10:49:48.092Z,100873.38
2018-11-23T10:50:51.525Z,100863.45
2018-11-23T10:51:54.942Z,100871.39
2018-11-23T10:52:58.351Z,100869.39
2018-11-23T10:54:01.792Z,100862.52
2018-11-23T10:55:07.050Z,100858.41
2018-11-23T10:56:10.474Z,100862.70
2018-11-23T10:57:13.917Z,100856.41
2018-11-23T10:58:17.442Z,100858.02
2018-11-23T10:59:20.868Z,100851.16
2018-11-23T11:00:29.743Z,100850.03
2018-11-23T11:01:38.417Z,100845.91
2018-11-23T11:02:45.182Z,100841.48
2018-11-23T11:03:53.797Z,100839.82
2018-11-23T11:05:30.668Z,100840.31
2018-11-23T11:06:39.319Z,100836.73
2018-11-23T11:07:42.717Z,100832.61
2018-11-23T11:08:46.487Z,100833.91
2018-11-23T11:09:49.934Z,100833.34
2018-11-23T11:10:53.628Z,100833.59
2018-11-23T11:11:57.044Z,100828.10
2018-11-23T11:13:00.466Z,100825.60
2018-11-23T11:14:03.948Z,100824.97
2018-11-23T11:15:08.198Z,100824.16
2018-11-23T11:16:14.566Z,100818.10
2018-11-23T11:17:18.069Z,100808.73
2018-11-23T11:18:21.479Z,100813.13
2018-11-23T11:19:25.396Z,100812.01
2018-11-23T11:20:28.835Z,100809.26
2018-11-23T11:21:32.278Z,100809.51
2018-11-23T11:22:35.838Z,100809.75
2018-11-23T11:23:39.393Z,100809.19
2018-11-23T11:24:42.920Z,100810.25
2018-11-23T11:25:47.195Z,100806.69
2018-11-23T11:26:50.621Z,100807.75
2018-11-23T11:27:54.211Z,100803.06
2018-11-23T11:28:57.693Z,100803.63
2018-11-23T11:30:01.130Z,100806.63
2018-11-23T11:31:04.965Z,100800.88
2018-11-23T11:32:08.375Z,100799.75
2018-11-23T11:33:11.793Z,100795.88
2018-11-23T11:34:15.256Z,100793.69
2018-11-23T11:35:18.721Z,100802.19
2018-11-23T11:36:22.168Z,100800.24
2018-11-23T11:37:25.603Z,100796.94
2018-11-23T11:38:29.093Z,100793.13
2018-11-23T11:39:32.468Z,100790.63
2018-11-23T11:40:35.910Z,100788.45
2018-11-23T11:41:39.532Z,100789.25
2018-11-23T11:42:43.513Z,100790.06
2018-11-23T11:43:47.008Z,100790.63
2018-11-23T11:44:50.461Z,100785.13
2018-11-23T11:45:53.889Z,100788.45
2018-11-23T11:46:57.333Z,100782.95
2018-11-23T11:48:00.751Z,100782.38
2018-11-23T11:49:04.399Z,100781.58
2018-11-23T11:50:09.630Z,100784.32
2018-11-23T11:51:13.218Z,100776.08
2018-11-23T11:52:16.634Z,100777.20
2018-11-23T11:53:20.068Z,100780.20
2018-11-23T11:54:23.491Z,100776.89
2018-11-23T11:55:26.887Z,100777.45
2018-11-23T11:56:30.339Z,100769.77
2018-11-23T11:57:33.735Z,100773.33
2018-11-23T11:58:37.430Z,100767.02
2018-11-23T11:59:40.883Z,100772.52
2018-11-23T12:00:44.311Z,100773.64
2018-11-23T12:01:47.955Z,100765.97
2018-11-23T12:02:51.353Z,100767.91
2018-11-23T12:03:55.318Z,100770.66
2018-11-23T12:04:58.739Z,100767.02
2018-11-23T12:06:02.155Z,100773.08
2018-11-23T12:07:06.229Z,100766.21
2018-11-23T12:08:09.629Z,100767.02
2018-11-23T12:09:13.150Z,100763.39